Stoneham, Colorado
Current Conditions -  °F | °C
As of 8:55 AM on Tuesday 21 Oct 2014 (Local Time) from KFMM Reporting Station
Clear Clear  
Wind Chill: 44°   Ceiling: Unl
Heat Index: 49°   Visibility: 10mi
Dew Point: 40°   Wind: 10mph
Humidity: 71%   Direction: 250°WSW
Pressure: 30.02"   Gusts: NA
Location:  40.61°N, 103.67°W
Report Text: KFMM 211455Z AUTO 25009KT 10SM CLR 09/04 A3002 RMK AO2 T00920042
Loading
Personal Weather Stations






























Interactive Weather Map
Tropical Storm Tracking
New forecast layout! Learn more

10-Day Weather Forecast

Advertisements
Track Severe Weather on mobile